This is the latest recevied weather packets stored in our database for station/object K5NCO. If no packets are shown the sender has not sent any weather packets the latest 10 day(s).
| Time | Temp. | Humidity | Pressure | Rain* | Wind** | Luminosity | Snow |
|---|---|---|---|---|---|---|---|
| 1777669522 | 12.78° C | 99% | 1014.5 hPa | 0 mm | - | 39 W/m² | - |
| 1777669219 | 12.78° C | 99% | 1014.4 hPa | 0 mm | - | 49 W/m² | - |
| 1777668916 | 13.33° C | 99% | 1014.2 hPa | 0 mm | - | 59 W/m² | - |
| 1777668614 | 13.33° C | 99% | 1013.9 hPa | 0 mm | - | 55 W/m² | - |
| 1777668309 | 13.33° C | 99% | 1014.1 hPa | 0 mm | - | 85 W/m² | - |
| 1777668006 | 13.33° C | 99% | 1014.1 hPa | 0 mm | - | 109 W/m² | - |
| 1777667703 | 13.33° C | 99% | 1013.8 hPa | 0 mm | - | 106 W/m² | - |
| 1777667400 | 13.33° C | 99% | 1013.8 hPa | 0 mm | - | 86 W/m² | - |
| 1777667096 | 13.33° C | 99% | 1013.2 hPa | 0 mm | - | 189 W/m² | - |
| 1777666793 | 13.33° C | 99% | 1013.4 hPa | 0 mm | - | 143 W/m² | - |
| 1777666490 | 13.33° C | 99% | 1013.8 hPa | 0 mm | - | 94 W/m² | - |
| 1777666187 | 13.33° C | 99% | 1013.6 hPa | 0 mm | - | 126 W/m² | - |
| 1777665885 | 13.33° C | 99% | 1014 hPa | 1.78 mm | - | 132 W/m² | - |
| 1777665581 | 13.33° C | 99% | 1013.6 hPa | 1.78 mm | - | 179 W/m² | - |
| 1777665278 | 13.33° C | 99% | 1013.7 hPa | 1.78 mm | - | 186 W/m² | - |
| 1777664973 | 13.33° C | 99% | 1013.8 hPa | 1.27 mm | - | 174 W/m² | - |
| 1777664669 | 13.33° C | 99% | 1014 hPa | 1.78 mm | - | 158 W/m² | - |
| 1777664365 | 13.33° C | 99% | 1014.8 hPa | 3.05 mm | - | 80 W/m² | - |
| 1777664064 | 13.33° C | 99% | 1015.4 hPa | 1.27 mm | - | 78 W/m² | - |
| 1777663761 | 13.33° C | 99% | 1015.3 hPa | 0 mm | - | 118 W/m² | - |
| 1777663458 | 13.33° C | 99% | 1015.1 hPa | 0 mm | - | 90 W/m² | - |
| 1777663155 | 13.33° C | 99% | 1014.5 hPa | 0 mm | - | 81 W/m² | - |
| 1777662853 | 13.33° C | 99% | 1014.2 hPa | 0 mm | - | 78 W/m² | - |
| 1777662550 | 13.33° C | 99% | 1013.9 hPa | 0 mm | - | 115 W/m² | - |
| 1777662245 | 13.33° C | 99% | 1013.5 hPa | 0 mm | - | 148 W/m² | - |
* Rain latest hour (hover to see other rain measurements)
** Current wind speed in m/s (hover to see current wind gust speed)